Virgin Gorda, British Virgin Islands
Current Conditions -  °F | °C
As of 7:00 AM on Friday 31 Oct 2014 (Local Time) from TUPJ Reporting Station
Scattered Clouds Scattered Clouds  
Wind Chill: 81°   Ceiling: Unl
Heat Index: 86°   Visibility: 6mi
Dew Point: 75°   Wind: 12mph
Humidity: 84%   Direction: 220°SW
Pressure: 29.85"   Gusts: NA
Location:  18.45°N, 64.43°W
Report Text: TUPJ 311100Z 22010KT 9999 SCT019 27/24 Q1011 RMK A2986
Loading
Personal Weather Stations






























Interactive Weather Map
Tropical Storm Tracking
New forecast layout! Learn more

10-Day Weather Forecast

Advertisements
Track Severe Weather on mobile